Aérodrome :
LOGIN :

S'inscrire | Disclaimer

   EN    FR    IT 

 










Légende :    VFR   VFR Marginal   IFR   IFR Intensif   IFR Très Intensif
Visi : 
Plafond : 
>= 8 km
>= 3000ft
5 à 8 km
1000 à 3000 ft
1500m à 5 km
500 à 1000 ft
800 à 1500m
200 à 500 ft
< 800m
< 200 ft
Symboles :   Orages  Brouillard  Fortes neiges  Fortes précipitations  Vent > 20 kt
SIGMETs :   Divers  Orages  Givrage  Turbulence  Onde Orograph.  Cendres Volcan.







- Altitude de l'aérodrome : 17 ft
- Code IATA : GRQ


EHGG - Groningen Eelde

DERNIER METAR :
  • 200155Z AUTO 21008KT 9999 NSC 17/14 Q1014

METARs EXPIRÉS :
  • 200125Z AUTO 21008KT 9999 NSC 17/14 Q1014
  • 200055Z AUTO 22011KT 190V250 9999 NSC 18/14 Q1014
  • 200025Z AUTO 21011KT 180V240 9999 NSC 18/14 Q1014
  • 192355Z AUTO 22013KT 190V250 9999 NSC 18/14 Q1014
  • 192325Z AUTO 21011KT 9999 NSC 18/14 Q1014

TAF TAF EHGG
Valide du 20 à 00h jusqu'au 21 à 06h UTC


192311Z 2000/2106 22010KT CAVOK
BECMG 2007/2009 22015G25KT
BECMG 2015/2018 19007KT
BECMG 2023/2102 18015KT
BECMG 2104/2106 20020G30KT
Pas de NOTAMs connus pour ce terrain.



MET'MAP, la Météo Aéronautique d'un coup d'oeil ! - Copyright ORBIFLY Décembre 2007 - Disclaimer

ORBIFLY MET'MAP TEAM :

Programmation & Développement : Alexandra Zaïnal
Conception & Développement : Baudouin d'Aumeries
Co-Programmation & Développement : Marc-Olivier Méhu
Soutien technique & logistique : Manuel Goepfert

Contact : metmap@orbifly.com




SOURCES & CREDITS :

   NOAA